sensor_id;sensor_type;location;lat;lon;timestamp;temperature;humidity
36556;DHT22;40859;50.560;7.268;2023-04-01T00:00:57;22.50;81.10
36556;DHT22;40859;50.560;7.268;2023-04-01T00:03:24;22.50;81.10
36556;DHT22;40859;50.560;7.268;2023-04-01T00:05:52;22.50;81.10
36556;DHT22;40859;50.560;7.268;2023-04-01T00:08:18;22.50;80.90
36556;DHT22;40859;50.560;7.268;2023-04-01T00:10:44;22.50;80.90
36556;DHT22;40859;50.560;7.268;2023-04-01T00:13:10;22.50;80.80
36556;DHT22;40859;50.560;7.268;2023-04-01T00:15:36;22.50;80.80
36556;DHT22;40859;50.560;7.268;2023-04-01T00:18:02;22.50;80.90
36556;DHT22;40859;50.560;7.268;2023-04-01T00:20:29;22.50;80.70
36556;DHT22;40859;50.560;7.268;2023-04-01T00:22:55;22.50;80.70
36556;DHT22;40859;50.560;7.268;2023-04-01T00:25:24;22.50;80.70
36556;DHT22;40859;50.560;7.268;2023-04-01T00:27:49;22.50;80.70
36556;DHT22;40859;50.560;7.268;2023-04-01T00:30:16;22.50;80.60
36556;DHT22;40859;50.560;7.268;2023-04-01T00:32:43;22.50;80.60
36556;DHT22;40859;50.560;7.268;2023-04-01T00:35:09;22.50;80.60
36556;DHT22;40859;50.560;7.268;2023-04-01T00:37:37;22.50;80.60
36556;DHT22;40859;50.560;7.268;2023-04-01T00:40:04;22.50;80.50
36556;DHT22;40859;50.560;7.268;2023-04-01T00:42:31;22.50;80.50
36556;DHT22;40859;50.560;7.268;2023-04-01T00:44:57;22.50;80.50
36556;DHT22;40859;50.560;7.268;2023-04-01T00:47:25;22.50;80.50
36556;DHT22;40859;50.560;7.268;2023-04-01T00:49:55;22.50;80.40
36556;DHT22;40859;50.560;7.268;2023-04-01T00:52:23;22.40;80.40
36556;DHT22;40859;50.560;7.268;2023-04-01T00:54:56;22.40;80.30
36556;DHT22;40859;50.560;7.268;2023-04-01T00:57:31;22.40;80.30
36556;DHT22;40859;50.560;7.268;2023-04-01T00:59:59;22.40;80.30
36556;DHT22;40859;50.560;7.268;2023-04-01T01:02:25;22.40;81.20
36556;DHT22;40859;50.560;7.268;2023-04-01T01:04:51;22.40;80.30
36556;DHT22;40859;50.560;7.268;2023-04-01T01:13:30;22.40;80.20
36556;DHT22;40859;50.560;7.268;2023-04-01T01:16:09;22.40;80.20
36556;DHT22;40859;50.560;7.268;2023-04-01T01:25:07;22.40;80.10
36556;DHT22;40859;50.560;7.268;2023-04-01T01:27:42;22.40;80.20
36556;DHT22;40859;50.560;7.268;2023-04-01T01:30:18;22.40;80.10
36556;DHT22;40859;50.560;7.268;2023-04-01T01:35:50;22.30;80.10
36556;DHT22;40859;50.560;7.268;2023-04-01T01:38:23;22.30;80.10
36556;DHT22;40859;50.560;7.268;2023-04-01T01:40:51;22.40;80.10
36556;DHT22;40859;50.560;7.268;2023-04-01T01:43:26;22.30;80.00
36556;DHT22;40859;50.560;7.268;2023-04-01T01:45:59;22.30;80.00
36556;DHT22;40859;50.560;7.268;2023-04-01T01:48:27;22.30;80.00
36556;DHT22;40859;50.560;7.268;2023-04-01T01:50:59;22.30;80.00
36556;DHT22;40859;50.560;7.268;2023-04-01T01:53:25;22.30;80.00
36556;DHT22;40859;50.560;7.268;2023-04-01T01:55:51;22.30;80.00
36556;DHT22;40859;50.560;7.268;2023-04-01T01:58:36;22.30;79.90
36556;DHT22;40859;50.560;7.268;2023-04-01T02:01:10;22.30;79.90
36556;DHT22;40859;50.560;7.268;2023-04-01T02:03:39;22.30;79.80
36556;DHT22;40859;50.560;7.268;2023-04-01T02:06:13;22.30;79.80
36556;DHT22;40859;50.560;7.268;2023-04-01T02:09:41;22.30;79.80
36556;DHT22;40859;50.560;7.268;2023-04-01T02:12:09;22.30;79.80
36556;DHT22;40859;50.560;7.268;2023-04-01T02:15:42;22.30;79.80
36556;DHT22;40859;50.560;7.268;2023-04-01T02:18:12;22.30;79.80
36556;DHT22;40859;50.560;7.268;2023-04-01T02:20:39;22.30;79.80
36556;DHT22;40859;50.560;7.268;2023-04-01T02:23:07;22.30;79.80
36556;DHT22;40859;50.560;7.268;2023-04-01T02:25:36;22.30;79.70
36556;DHT22;40859;50.560;7.268;2023-04-01T02:28:06;22.30;79.70
36556;DHT22;40859;50.560;7.268;2023-04-01T02:30:34;22.20;79.80
36556;DHT22;40859;50.560;7.268;2023-04-01T02:33:02;22.20;79.70
36556;DHT22;40859;50.560;7.268;2023-04-01T02:35:29;22.20;79.70
36556;DHT22;40859;50.560;7.268;2023-04-01T02:37:56;22.20;79.60
36556;DHT22;40859;50.560;7.268;2023-04-01T02:40:23;22.20;79.60
36556;DHT22;40859;50.560;7.268;2023-04-01T02:42:48;22.20;79.60
36556;DHT22;40859;50.560;7.268;2023-04-01T02:45:14;22.20;79.60
36556;DHT22;40859;50.560;7.268;2023-04-01T02:47:41;22.20;79.60
36556;DHT22;40859;50.560;7.268;2023-04-01T02:50:07;22.20;79.60
36556;DHT22;40859;50.560;7.268;2023-04-01T02:52:33;22.20;79.60
36556;DHT22;40859;50.560;7.268;2023-04-01T02:54:59;22.20;79.60
36556;DHT22;40859;50.560;7.268;2023-04-01T02:57:26;22.20;79.70
36556;DHT22;40859;50.560;7.268;2023-04-01T02:59:51;22.20;79.60
36556;DHT22;40859;50.560;7.268;2023-04-01T03:02:17;22.20;79.60
36556;DHT22;40859;50.560;7.268;2023-04-01T03:04:46;22.20;79.50
36556;DHT22;40859;50.560;7.268;2023-04-01T03:07:11;22.20;79.50
36556;DHT22;40859;50.560;7.268;2023-04-01T03:09:38;22.20;79.50
36556;DHT22;40859;50.560;7.268;2023-04-01T03:12:04;22.20;79.50
36556;DHT22;40859;50.560;7.268;2023-04-01T03:14:31;22.10;79.40
36556;DHT22;40859;50.560;7.268;2023-04-01T03:16:56;22.10;78.60
36556;DHT22;40859;50.560;7.268;2023-04-01T03:19:23;22.10;78.50
36556;DHT22;40859;50.560;7.268;2023-04-01T03:21:50;22.00;78.50
36556;DHT22;40859;50.560;7.268;2023-04-01T03:24:16;22.00;78.70
36556;DHT22;40859;50.560;7.268;2023-04-01T03:26:43;22.00;78.70
36556;DHT22;40859;50.560;7.268;2023-04-01T03:29:09;21.90;78.80
36556;DHT22;40859;50.560;7.268;2023-04-01T03:31:35;21.90;78.70
36556;DHT22;40859;50.560;7.268;2023-04-01T03:34:01;21.90;78.80
36556;DHT22;40859;50.560;7.268;2023-04-01T03:36:27;21.80;78.80
36556;DHT22;40859;50.560;7.268;2023-04-01T03:38:53;21.80;78.70
36556;DHT22;40859;50.560;7.268;2023-04-01T03:41:19;21.80;79.10
36556;DHT22;40859;50.560;7.268;2023-04-01T03:43:45;21.90;79.20
36556;DHT22;40859;50.560;7.268;2023-04-01T03:46:11;21.90;78.80
36556;DHT22;40859;50.560;7.268;2023-04-01T03:48:36;21.90;78.60
36556;DHT22;40859;50.560;7.268;2023-04-01T03:51:07;21.90;78.70
36556;DHT22;40859;50.560;7.268;2023-04-01T03:53:33;21.90;79.40
36556;DHT22;40859;50.560;7.268;2023-04-01T03:56:06;21.80;78.40
36556;DHT22;40859;50.560;7.268;2023-04-01T03:58:33;21.80;78.50
36556;DHT22;40859;50.560;7.268;2023-04-01T04:00:59;21.80;78.60
36556;DHT22;40859;50.560;7.268;2023-04-01T04:03:25;21.80;78.40
36556;DHT22;40859;50.560;7.268;2023-04-01T04:05:51;21.90;78.40
36556;DHT22;40859;50.560;7.268;2023-04-01T04:08:18;21.80;78.30
36556;DHT22;40859;50.560;7.268;2023-04-01T04:10:44;21.80;78.30
36556;DHT22;40859;50.560;7.268;2023-04-01T04:13:11;21.80;78.20
36556;DHT22;40859;50.560;7.268;2023-04-01T04:15:38;21.80;78.30
36556;DHT22;40859;50.560;7.268;2023-04-01T04:18:04;21.80;78.30
36556;DHT22;40859;50.560;7.268;2023-04-01T04:20:30;21.80;78.50
36556;DHT22;40859;50.560;7.268;2023-04-01T04:22:56;21.80;78.30
36556;DHT22;40859;50.560;7.268;2023-04-01T04:25:21;21.80;78.20
36556;DHT22;40859;50.560;7.268;2023-04-01T04:27:47;21.70;78.20
36556;DHT22;40859;50.560;7.268;2023-04-01T04:30:15;21.80;78.20
36556;DHT22;40859;50.560;7.268;2023-04-01T04:32:41;21.70;78.10
36556;DHT22;40859;50.560;7.268;2023-04-01T04:35:08;21.70;78.10
36556;DHT22;40859;50.560;7.268;2023-04-01T04:37:34;21.70;78.10
36556;DHT22;40859;50.560;7.268;2023-04-01T04:39:59;21.70;78.20
36556;DHT22;40859;50.560;7.268;2023-04-01T04:42:26;21.70;78.10
36556;DHT22;40859;50.560;7.268;2023-04-01T04:44:51;21.70;78.10
36556;DHT22;40859;50.560;7.268;2023-04-01T04:47:17;21.70;78.10
36556;DHT22;40859;50.560;7.268;2023-04-01T04:49:43;21.70;78.20
36556;DHT22;40859;50.560;7.268;2023-04-01T04:52:09;21.70;78.60
36556;DHT22;40859;50.560;7.268;2023-04-01T04:54:35;21.70;78.30
36556;DHT22;40859;50.560;7.268;2023-04-01T04:57:01;21.70;78.20
36556;DHT22;40859;50.560;7.268;2023-04-01T04:59:27;21.70;78.20
36556;DHT22;40859;50.560;7.268;2023-04-01T05:01:53;21.60;78.20
36556;DHT22;40859;50.560;7.268;2023-04-01T05:04:19;21.70;78.20
36556;DHT22;40859;50.560;7.268;2023-04-01T05:06:44;21.60;78.10
36556;DHT22;40859;50.560;7.268;2023-04-01T05:09:10;21.60;78.30
36556;DHT22;40859;50.560;7.268;2023-04-01T05:11:36;21.60;78.20
36556;DHT22;40859;50.560;7.268;2023-04-01T05:14:02;21.60;78.40
36556;DHT22;40859;50.560;7.268;2023-04-01T05:16:28;21.60;78.30
36556;DHT22;40859;50.560;7.268;2023-04-01T05:18:58;21.60;78.20
36556;DHT22;40859;50.560;7.268;2023-04-01T05:21:24;21.60;78.20
36556;DHT22;40859;50.560;7.268;2023-04-01T05:23:50;21.60;78.30
36556;DHT22;40859;50.560;7.268;2023-04-01T05:26:16;21.60;78.30
36556;DHT22;40859;50.560;7.268;2023-04-01T05:28:41;21.60;78.20
36556;DHT22;40859;50.560;7.268;2023-04-01T05:31:08;21.60;78.30
36556;DHT22;40859;50.560;7.268;2023-04-01T05:33:34;21.60;78.30
36556;DHT22;40859;50.560;7.268;2023-04-01T05:36:14;21.60;78.40
36556;DHT22;40859;50.560;7.268;2023-04-01T05:38:40;21.60;78.40
36556;DHT22;40859;50.560;7.268;2023-04-01T05:41:08;21.70;78.50
36556;DHT22;40859;50.560;7.268;2023-04-01T05:43:36;21.60;78.50
36556;DHT22;40859;50.560;7.268;2023-04-01T05:46:02;21.60;78.60
36556;DHT22;40859;50.560;7.268;2023-04-01T05:48:28;21.60;78.40
36556;DHT22;40859;50.560;7.268;2023-04-01T05:50:54;21.60;78.50
36556;DHT22;40859;50.560;7.268;2023-04-01T05:53:22;21.60;80.30
36556;DHT22;40859;50.560;7.268;2023-04-01T05:55:48;21.60;80.00
36556;DHT22;40859;50.560;7.268;2023-04-01T05:58:14;21.60;80.20
36556;DHT22;40859;50.560;7.268;2023-04-01T06:00:40;21.60;80.30
36556;DHT22;40859;50.560;7.268;2023-04-01T06:03:06;21.60;80.30
36556;DHT22;40859;50.560;7.268;2023-04-01T06:05:42;21.60;80.20
36556;DHT22;40859;50.560;7.268;2023-04-01T06:08:18;21.60;80.30
36556;DHT22;40859;50.560;7.268;2023-04-01T06:20:45;21.50;80.20
36556;DHT22;40859;50.560;7.268;2023-04-01T06:26:58;21.60;80.10
36556;DHT22;40859;50.560;7.268;2023-04-01T06:30:52;21.70;80.10
36556;DHT22;40859;50.560;7.268;2023-04-01T06:35:07;21.70;80.20
36556;DHT22;40859;50.560;7.268;2023-04-01T06:52:26;21.80;80.30
36556;DHT22;40859;50.560;7.268;2023-04-01T07:01:10;21.80;80.20
36556;DHT22;40859;50.560;7.268;2023-04-01T07:03:52;21.80;80.30
36556;DHT22;40859;50.560;7.268;2023-04-01T07:08:16;21.90;80.40
36556;DHT22;40859;50.560;7.268;2023-04-01T07:10:53;21.90;80.50
36556;DHT22;40859;50.560;7.268;2023-04-01T07:13:34;21.90;80.40
36556;DHT22;40859;50.560;7.268;2023-04-01T07:16:34;21.90;80.40
36556;DHT22;40859;50.560;7.268;2023-04-01T07:24:34;21.90;80.50
36556;DHT22;40859;50.560;7.268;2023-04-01T07:27:01;21.90;80.60
36556;DHT22;40859;50.560;7.268;2023-04-01T07:29:27;21.90;80.40
36556;DHT22;40859;50.560;7.268;2023-04-01T07:42:55;21.90;80.40
36556;DHT22;40859;50.560;7.268;2023-04-01T07:49:06;22.00;80.50
36556;DHT22;40859;50.560;7.268;2023-04-01T07:56:19;22.00;80.50
36556;DHT22;40859;50.560;7.268;2023-04-01T08:02:08;22.00;80.50
36556;DHT22;40859;50.560;7.268;2023-04-01T08:05:29;22.00;80.70
36556;DHT22;40859;50.560;7.268;2023-04-01T08:09:48;22.00;80.60
36556;DHT22;40859;50.560;7.268;2023-04-01T08:12:43;22.00;80.80
36556;DHT22;40859;50.560;7.268;2023-04-01T08:15:28;22.00;80.80
36556;DHT22;40859;50.560;7.268;2023-04-01T08:18:20;22.00;80.80
36556;DHT22;40859;50.560;7.268;2023-04-01T08:21:16;22.00;80.90
36556;DHT22;40859;50.560;7.268;2023-04-01T08:23:51;22.00;80.90
36556;DHT22;40859;50.560;7.268;2023-04-01T08:26:36;21.90;80.40
36556;DHT22;40859;50.560;7.268;2023-04-01T08:29:17;21.90;80.80
36556;DHT22;40859;50.560;7.268;2023-04-01T08:31:55;21.80;81.00
36556;DHT22;40859;50.560;7.268;2023-04-01T08:34:28;21.80;81.20
36556;DHT22;40859;50.560;7.268;2023-04-01T08:37:18;21.80;81.00
36556;DHT22;40859;50.560;7.268;2023-04-01T08:39:51;21.80;80.90
36556;DHT22;40859;50.560;7.268;2023-04-01T08:43:00;21.80;81.00
36556;DHT22;40859;50.560;7.268;2023-04-01T08:45:48;21.80;81.10
36556;DHT22;40859;50.560;7.268;2023-04-01T08:48:52;21.80;81.10
36556;DHT22;40859;50.560;7.268;2023-04-01T09:09:28;22.00;81.10
36556;DHT22;40859;50.560;7.268;2023-04-01T09:15:33;22.00;81.00
36556;DHT22;40859;50.560;7.268;2023-04-01T09:28:10;22.00;80.80
36556;DHT22;40859;50.560;7.268;2023-04-01T09:32:20;22.00;80.80
36556;DHT22;40859;50.560;7.268;2023-04-01T09:38:11;22.00;80.90
36556;DHT22;40859;50.560;7.268;2023-04-01T09:46:35;22.10;80.90
36556;DHT22;40859;50.560;7.268;2023-04-01T09:50:34;22.10;80.90
36556;DHT22;40859;50.560;7.268;2023-04-01T09:54:08;22.10;80.90
36556;DHT22;40859;50.560;7.268;2023-04-01T10:02:35;22.10;80.90
36556;DHT22;40859;50.560;7.268;2023-04-01T10:05:33;22.10;81.00
36556;DHT22;40859;50.560;7.268;2023-04-01T10:16:10;22.10;81.10
36556;DHT22;40859;50.560;7.268;2023-04-01T10:19:11;22.10;81.10
36556;DHT22;40859;50.560;7.268;2023-04-01T10:29:21;22.10;81.20
36556;DHT22;40859;50.560;7.268;2023-04-01T10:36:48;22.10;81.20
36556;DHT22;40859;50.560;7.268;2023-04-01T10:40:57;22.10;81.20
36556;DHT22;40859;50.560;7.268;2023-04-01T10:44:50;22.10;80.50
36556;DHT22;40859;50.560;7.268;2023-04-01T10:49:22;22.10;81.20
36556;DHT22;40859;50.560;7.268;2023-04-01T11:08:16;22.10;81.30
36556;DHT22;40859;50.560;7.268;2023-04-01T11:27:21;22.20;81.80
36556;DHT22;40859;50.560;7.268;2023-04-01T11:30:27;22.20;82.10
36556;DHT22;40859;50.560;7.268;2023-04-01T11:33:09;22.20;82.20
36556;DHT22;40859;50.560;7.268;2023-04-01T11:36:08;22.20;82.20
36556;DHT22;40859;50.560;7.268;2023-04-01T11:40:46;22.20;82.40
36556;DHT22;40859;50.560;7.268;2023-04-01T11:43:34;22.20;82.50
36556;DHT22;40859;50.560;7.268;2023-04-01T11:46:24;22.20;82.60
36556;DHT22;40859;50.560;7.268;2023-04-01T11:49:29;22.20;82.70
36556;DHT22;40859;50.560;7.268;2023-04-01T11:55:46;22.20;82.80
36556;DHT22;40859;50.560;7.268;2023-04-01T11:58:36;22.20;82.80
36556;DHT22;40859;50.560;7.268;2023-04-01T12:01:20;22.20;82.90
36556;DHT22;40859;50.560;7.268;2023-04-01T12:04:24;22.20;83.00
36556;DHT22;40859;50.560;7.268;2023-04-01T12:07:49;22.20;83.00
36556;DHT22;40859;50.560;7.268;2023-04-01T12:10:18;22.20;83.00
36556;DHT22;40859;50.560;7.268;2023-04-01T12:13:14;22.20;83.00
36556;DHT22;40859;50.560;7.268;2023-04-01T12:21:37;22.20;83.00
36556;DHT22;40859;50.560;7.268;2023-04-01T12:24:52;22.20;83.10
36556;DHT22;40859;50.560;7.268;2023-04-01T12:27:46;22.30;83.10
36556;DHT22;40859;50.560;7.268;2023-04-01T12:30:51;22.20;83.20
36556;DHT22;40859;50.560;7.268;2023-04-01T12:34:02;22.20;83.20
36556;DHT22;40859;50.560;7.268;2023-04-01T12:36:50;22.20;83.20
36556;DHT22;40859;50.560;7.268;2023-04-01T12:40:28;22.30;83.20
36556;DHT22;40859;50.560;7.268;2023-04-01T12:53:21;22.30;83.20
36556;DHT22;40859;50.560;7.268;2023-04-01T12:56:00;22.30;83.20
36556;DHT22;40859;50.560;7.268;2023-04-01T13:01:33;22.20;83.30
36556;DHT22;40859;50.560;7.268;2023-04-01T13:04:40;22.30;83.20
36556;DHT22;40859;50.560;7.268;2023-04-01T13:10:19;22.30;83.20
36556;DHT22;40859;50.560;7.268;2023-04-01T13:16:07;22.30;83.30
36556;DHT22;40859;50.560;7.268;2023-04-01T13:18:55;22.30;83.20
36556;DHT22;40859;50.560;7.268;2023-04-01T13:22:05;22.30;83.30
36556;DHT22;40859;50.560;7.268;2023-04-01T13:31:33;22.30;83.30
36556;DHT22;40859;50.560;7.268;2023-04-01T13:49:16;22.30;83.20
36556;DHT22;40859;50.560;7.268;2023-04-01T14:06:02;22.30;83.30
36556;DHT22;40859;50.560;7.268;2023-04-01T14:10:31;22.30;83.60
36556;DHT22;40859;50.560;7.268;2023-04-01T14:13:12;22.30;83.70
36556;DHT22;40859;50.560;7.268;2023-04-01T14:23:50;22.30;84.10
36556;DHT22;40859;50.560;7.268;2023-04-01T14:26:50;22.30;84.00
36556;DHT22;40859;50.560;7.268;2023-04-01T14:48:00;22.30;84.20
36556;DHT22;40859;50.560;7.268;2023-04-01T14:50:30;22.30;84.30
36556;DHT22;40859;50.560;7.268;2023-04-01T14:56:02;22.30;84.30
36556;DHT22;40859;50.560;7.268;2023-04-01T14:59:31;22.30;84.20
36556;DHT22;40859;50.560;7.268;2023-04-01T15:02:18;22.40;84.30
36556;DHT22;40859;50.560;7.268;2023-04-01T15:05:25;22.40;84.30
36556;DHT22;40859;50.560;7.268;2023-04-01T15:12:30;22.40;84.30
36556;DHT22;40859;50.560;7.268;2023-04-01T15:31:22;22.40;84.00
36556;DHT22;40859;50.560;7.268;2023-04-01T15:37:12;22.40;84.00
36556;DHT22;40859;50.560;7.268;2023-04-01T15:43:16;22.40;84.00
36556;DHT22;40859;50.560;7.268;2023-04-01T15:46:48;22.40;83.90
36556;DHT22;40859;50.560;7.268;2023-04-01T15:49:35;22.40;83.90
36556;DHT22;40859;50.560;7.268;2023-04-01T16:00:19;22.40;83.90
36556;DHT22;40859;50.560;7.268;2023-04-01T16:15:03;22.40;83.90
36556;DHT22;40859;50.560;7.268;2023-04-01T16:22:39;22.40;83.90
36556;DHT22;40859;50.560;7.268;2023-04-01T16:25:29;22.40;83.90
36556;DHT22;40859;50.560;7.268;2023-04-01T16:28:24;22.40;83.90
36556;DHT22;40859;50.560;7.268;2023-04-01T16:32:49;22.40;83.90
36556;DHT22;40859;50.560;7.268;2023-04-01T16:37:19;22.40;83.90
36556;DHT22;40859;50.560;7.268;2023-04-01T16:44:24;22.40;83.90
36556;DHT22;40859;50.560;7.268;2023-04-01T16:52:17;22.40;83.90
36556;DHT22;40859;50.560;7.268;2023-04-01T16:55:21;22.40;83.90
36556;DHT22;40859;50.560;7.268;2023-04-01T16:57:52;22.40;83.80
36556;DHT22;40859;50.560;7.268;2023-04-01T17:00:28;22.40;83.80
36556;DHT22;40859;50.560;7.268;2023-04-01T17:03:08;22.50;83.90
36556;DHT22;40859;50.560;7.268;2023-04-01T17:10:56;22.50;83.90
36556;DHT22;40859;50.560;7.268;2023-04-01T17:13:45;22.50;84.00
36556;DHT22;40859;50.560;7.268;2023-04-01T17:18:00;22.50;84.10
36556;DHT22;40859;50.560;7.268;2023-04-01T17:21:02;22.40;84.00
36556;DHT22;40859;50.560;7.268;2023-04-01T17:23:38;22.50;84.40
36556;DHT22;40859;50.560;7.268;2023-04-01T17:36:28;22.50;85.80
36556;DHT22;40859;50.560;7.268;2023-04-01T17:41:54;22.50;86.50
36556;DHT22;40859;50.560;7.268;2023-04-01T17:45:03;22.50;86.60
36556;DHT22;40859;50.560;7.268;2023-04-01T17:47:47;22.50;86.90
36556;DHT22;40859;50.560;7.268;2023-04-01T17:52:56;22.50;87.10
36556;DHT22;40859;50.560;7.268;2023-04-01T17:55:53;22.50;87.80
36556;DHT22;40859;50.560;7.268;2023-04-01T17:59:11;22.50;88.00
36556;DHT22;40859;50.560;7.268;2023-04-01T18:12:09;22.50;88.00
36556;DHT22;40859;50.560;7.268;2023-04-01T18:15:00;22.50;88.00
36556;DHT22;40859;50.560;7.268;2023-04-01T18:17:54;22.50;87.90
36556;DHT22;40859;50.560;7.268;2023-04-01T18:21:23;22.50;87.90
36556;DHT22;40859;50.560;7.268;2023-04-01T18:24:11;22.50;87.90
36556;DHT22;40859;50.560;7.268;2023-04-01T18:26:43;22.50;87.80
36556;DHT22;40859;50.560;7.268;2023-04-01T18:30:40;22.50;87.80
36556;DHT22;40859;50.560;7.268;2023-04-01T18:33:31;22.50;87.60
36556;DHT22;40859;50.560;7.268;2023-04-01T18:36:09;22.60;87.50
36556;DHT22;40859;50.560;7.268;2023-04-01T18:38:45;22.50;87.30
36556;DHT22;40859;50.560;7.268;2023-04-01T18:44:46;22.50;87.10
36556;DHT22;40859;50.560;7.268;2023-04-01T18:55:30;22.50;86.90
36556;DHT22;40859;50.560;7.268;2023-04-01T19:01:37;22.50;86.80
36556;DHT22;40859;50.560;7.268;2023-04-01T19:04:36;22.60;86.80
36556;DHT22;40859;50.560;7.268;2023-04-01T19:07:41;22.60;86.70
36556;DHT22;40859;50.560;7.268;2023-04-01T19:10:26;22.50;86.70
36556;DHT22;40859;50.560;7.268;2023-04-01T19:16:25;22.60;86.40
36556;DHT22;40859;50.560;7.268;2023-04-01T19:19:20;22.50;86.30
36556;DHT22;40859;50.560;7.268;2023-04-01T19:21:57;22.60;86.30
36556;DHT22;40859;50.560;7.268;2023-04-01T19:25:12;22.60;86.20
36556;DHT22;40859;50.560;7.268;2023-04-01T19:27:46;22.60;86.20
36556;DHT22;40859;50.560;7.268;2023-04-01T19:30:42;22.50;86.10
36556;DHT22;40859;50.560;7.268;2023-04-01T19:33:28;22.60;86.30
36556;DHT22;40859;50.560;7.268;2023-04-01T19:36:29;22.60;86.20
36556;DHT22;40859;50.560;7.268;2023-04-01T19:41:45;22.60;86.10
36556;DHT22;40859;50.560;7.268;2023-04-01T19:49:21;22.60;86.10
36556;DHT22;40859;50.560;7.268;2023-04-01T19:52:29;22.60;85.90
36556;DHT22;40859;50.560;7.268;2023-04-01T19:58:41;22.60;85.90
36556;DHT22;40859;50.560;7.268;2023-04-01T20:01:28;22.50;85.80
36556;DHT22;40859;50.560;7.268;2023-04-01T20:04:48;22.60;85.80
36556;DHT22;40859;50.560;7.268;2023-04-01T20:14:49;22.60;85.80
36556;DHT22;40859;50.560;7.268;2023-04-01T20:17:22;22.60;85.60
36556;DHT22;40859;50.560;7.268;2023-04-01T20:20:32;22.60;85.60
36556;DHT22;40859;50.560;7.268;2023-04-01T20:28:05;22.60;85.60
36556;DHT22;40859;50.560;7.268;2023-04-01T20:37:36;22.60;85.50
36556;DHT22;40859;50.560;7.268;2023-04-01T20:50:29;22.60;85.40
36556;DHT22;40859;50.560;7.268;2023-04-01T20:53:16;22.60;85.30
36556;DHT22;40859;50.560;7.268;2023-04-01T21:01:01;22.60;85.40
36556;DHT22;40859;50.560;7.268;2023-04-01T21:04:02;22.60;85.20
36556;DHT22;40859;50.560;7.268;2023-04-01T21:07:33;22.60;85.20
36556;DHT22;40859;50.560;7.268;2023-04-01T21:19:12;22.60;85.10
36556;DHT22;40859;50.560;7.268;2023-04-01T21:22:32;22.60;85.00
36556;DHT22;40859;50.560;7.268;2023-04-01T21:46:16;22.60;84.90
36556;DHT22;40859;50.560;7.268;2023-04-01T22:00:36;22.60;84.60
36556;DHT22;40859;50.560;7.268;2023-04-01T22:03:48;22.60;84.50
36556;DHT22;40859;50.560;7.268;2023-04-01T22:06:49;22.60;84.50
36556;DHT22;40859;50.560;7.268;2023-04-01T22:09:34;22.60;84.50
36556;DHT22;40859;50.560;7.268;2023-04-01T22:12:35;22.60;84.50
36556;DHT22;40859;50.560;7.268;2023-04-01T22:18:25;22.60;84.40
36556;DHT22;40859;50.560;7.268;2023-04-01T22:21:03;22.60;84.40
36556;DHT22;40859;50.560;7.268;2023-04-01T22:24:49;22.60;84.30
36556;DHT22;40859;50.560;7.268;2023-04-01T22:31:28;22.60;84.30
36556;DHT22;40859;50.560;7.268;2023-04-01T22:34:17;22.60;84.30
36556;DHT22;40859;50.560;7.268;2023-04-01T22:54:31;22.60;84.20
36556;DHT22;40859;50.560;7.268;2023-04-01T22:58:05;22.60;84.20
36556;DHT22;40859;50.560;7.268;2023-04-01T23:00:40;22.60;84.20
36556;DHT22;40859;50.560;7.268;2023-04-01T23:03:29;22.50;84.10
36556;DHT22;40859;50.560;7.268;2023-04-01T23:05:58;22.60;84.20
36556;DHT22;40859;50.560;7.268;2023-04-01T23:09:28;22.60;84.10
36556;DHT22;40859;50.560;7.268;2023-04-01T23:12:09;22.60;84.10
36556;DHT22;40859;50.560;7.268;2023-04-01T23:14:46;22.60;84.10
36556;DHT22;40859;50.560;7.268;2023-04-01T23:23:03;22.50;83.10
36556;DHT22;40859;50.560;7.268;2023-04-01T23:26:56;22.50;82.70
36556;DHT22;40859;50.560;7.268;2023-04-01T23:29:28;22.50;83.30
36556;DHT22;40859;50.560;7.268;2023-04-01T23:31:59;22.50;83.50
36556;DHT22;40859;50.560;7.268;2023-04-01T23:34:37;22.40;83.60
36556;DHT22;40859;50.560;7.268;2023-04-01T23:37:11;22.40;83.60
36556;DHT22;40859;50.560;7.268;2023-04-01T23:39:41;22.40;83.80
36556;DHT22;40859;50.560;7.268;2023-04-01T23:42:22;22.40;83.80
36556;DHT22;40859;50.560;7.268;2023-04-01T23:44:54;22.40;83.70
36556;DHT22;40859;50.560;7.268;2023-04-01T23:47:42;22.40;83.80
36556;DHT22;40859;50.560;7.268;2023-04-01T23:50:17;22.40;83.90
36556;DHT22;40859;50.560;7.268;2023-04-01T23:52:48;22.40;84.70
36556;DHT22;40859;50.560;7.268;2023-04-01T23:55:19;22.40;83.80
